Terminal Aerodrome Forecast
Issued by NWS

Home | Current Version | Previous Version | Graphics & Text | Print | Product List | Glossary On
Versions: 1 2 3 4 5 6 7 8 9 10 11 12 13 14 15 16 17 18 19 20 21 22 23 24 25
000
FTUS43 KLOT 201504 AAA
TAFGYY
TAF AMD
KGYY 201504Z 2015/2112 15010KT 5SM BR FEW009 BKN250
     FM201600 15010KT 6SM BR FEW015 OVC200
     FM201800 15012G19KT P6SM SCT035 OVC200
     FM210100 16014G24KT P6SM OVC150
     FM210400 19013G23KT P6SM OVC035 WS015/19045KT
     FM210800 23012KT 6SM -SHRA SCT015 OVC035
      TEMPO 2109/2112 3SM SHRA BR SCT008 OVC015=

USA.gov is the U.S. government's official web portal to all federal, state and local government web resources and services.